createdAt,value
2018-06-11T00:01:37.646Z,20.40
2018-06-11T00:04:05.327Z,20.30
2018-06-11T00:06:32.949Z,20.40
2018-06-11T00:09:00.703Z,20.40
2018-06-11T00:11:28.368Z,20.40
2018-06-11T00:13:56.065Z,20.40
2018-06-11T00:16:23.781Z,20.40
2018-06-11T00:18:51.464Z,20.40
2018-06-11T00:21:19.784Z,20.30
2018-06-11T00:23:47.420Z,20.30
2018-06-11T00:26:15.071Z,20.30
2018-06-11T00:28:42.718Z,20.30
2018-06-11T00:31:10.611Z,20.20
2018-06-11T00:33:38.218Z,20.20
2018-06-11T00:36:05.915Z,20.20
2018-06-11T00:38:33.792Z,20.20
2018-06-11T00:41:01.444Z,20.20
2018-06-11T00:43:29.100Z,20.20
2018-06-11T00:45:56.761Z,20.10
2018-06-11T00:48:24.426Z,20.10
2018-06-11T00:50:52.103Z,20.00
2018-06-11T00:53:19.748Z,20.00
2018-06-11T00:55:58.638Z,20.00
2018-06-11T00:58:26.344Z,20.00
2018-06-11T01:00:54.010Z,20.00
2018-06-11T01:03:21.630Z,20.00
2018-06-11T01:05:49.255Z,20.00
2018-06-11T01:08:17.051Z,20.00
2018-06-11T01:10:44.719Z,20.00
2018-06-11T01:13:12.431Z,20.00
2018-06-11T01:15:40.079Z,20.00
2018-06-11T01:18:07.707Z,19.90
2018-06-11T01:20:36.268Z,19.90
2018-06-11T01:23:03.895Z,19.90
2018-06-11T01:25:31.594Z,19.90
2018-06-11T01:27:59.319Z,19.90
2018-06-11T01:30:26.975Z,19.90
2018-06-11T01:32:54.634Z,19.80
2018-06-11T01:35:23.244Z,19.80
2018-06-11T01:37:50.847Z,19.80
2018-06-11T01:40:19.147Z,19.80
2018-06-11T01:42:46.795Z,19.70
2018-06-11T01:45:14.471Z,19.70
2018-06-11T01:47:42.144Z,19.70
2018-06-11T01:50:09.999Z,19.70
2018-06-11T01:52:37.743Z,19.70
2018-06-11T01:55:05.572Z,19.60
2018-06-11T01:57:33.276Z,19.60
2018-06-11T02:00:00.931Z,19.60
2018-06-11T02:02:28.591Z,19.50
2018-06-11T02:04:56.290Z,19.50
2018-06-11T02:07:24.788Z,19.50
2018-06-11T02:09:52.433Z,19.50
2018-06-11T02:12:20.110Z,19.40
2018-06-11T02:14:47.759Z,19.40
2018-06-11T02:17:15.384Z,19.40
2018-06-11T02:19:43.096Z,19.40
2018-06-11T02:22:10.735Z,19.40
2018-06-11T02:24:38.420Z,19.40
2018-06-11T02:27:06.215Z,19.30
2018-06-11T02:29:33.853Z,19.30
2018-06-11T02:32:01.794Z,19.30
2018-06-11T02:34:29.466Z,19.30
2018-06-11T02:36:57.094Z,19.30
2018-06-11T02:39:24.796Z,19.30
2018-06-11T02:41:52.501Z,19.20
2018-06-11T02:44:20.140Z,19.20
2018-06-11T02:46:47.776Z,19.30
2018-06-11T02:49:15.425Z,19.20
2018-06-11T02:51:43.058Z,19.20
2018-06-11T02:54:10.683Z,19.20
2018-06-11T02:56:38.563Z,19.10
2018-06-11T02:59:06.211Z,19.00
2018-06-11T03:01:33.868Z,19.00
2018-06-11T03:04:02.156Z,19.00
2018-06-11T03:06:29.899Z,19.00
2018-06-11T03:08:57.679Z,19.00
2018-06-11T03:11:25.356Z,18.90
2018-06-11T03:13:53.206Z,19.00
2018-06-11T03:16:21.422Z,18.90
2018-06-11T03:18:49.062Z,18.90
2018-06-11T03:21:16.694Z,19.00
2018-06-11T03:23:44.739Z,19.10
2018-06-11T03:26:12.456Z,19.00
2018-06-11T03:28:40.347Z,19.00
2018-06-11T03:31:08.742Z,19.00
2018-06-11T03:33:36.369Z,19.20
2018-06-11T03:36:04.097Z,19.20
2018-06-11T03:38:31.785Z,19.30
2018-06-11T03:41:03.639Z,19.40
2018-06-11T03:43:31.276Z,19.50
2018-06-11T03:45:58.960Z,19.50
2018-06-11T03:48:26.636Z,19.90
2018-06-11T03:50:54.303Z,20.60
2018-06-11T03:53:21.952Z,20.80
2018-06-11T03:55:49.585Z,21.40
2018-06-11T03:58:17.308Z,21.80
2018-06-11T04:00:45.898Z,22.30
2018-06-11T04:03:14.152Z,22.70
2018-06-11T04:05:41.881Z,23.20
2018-06-11T04:08:09.483Z,23.70
2018-06-11T04:10:37.149Z,24.20
2018-06-11T04:13:04.965Z,24.70
2018-06-11T04:15:32.568Z,25.20
2018-06-11T04:18:00.182Z,25.60
2018-06-11T04:20:27.812Z,25.70
2018-06-11T04:22:55.461Z,24.90
2018-06-11T04:25:23.085Z,24.50
2018-06-11T04:27:50.752Z,24.10
2018-06-11T04:30:18.409Z,24.10
2018-06-11T04:32:46.083Z,25.20
2018-06-11T04:35:13.712Z,26.00
2018-06-11T04:37:41.374Z,27.00
2018-06-11T04:40:09.071Z,27.70
2018-06-11T04:42:36.705Z,28.70
2018-06-11T04:45:04.435Z,29.50
2018-06-11T04:47:32.081Z,29.90
2018-06-11T04:49:59.817Z,30.30
2018-06-11T04:52:27.498Z,30.80
2018-06-11T04:54:55.143Z,31.00
2018-06-11T04:57:22.823Z,31.80
2018-06-11T04:59:50.551Z,32.20
2018-06-11T05:02:18.254Z,32.20
2018-06-11T05:04:45.891Z,32.60
2018-06-11T05:07:14.147Z,33.50
2018-06-11T05:09:42.628Z,34.00
2018-06-11T05:12:10.315Z,34.50
2018-06-11T05:14:37.918Z,34.70
2018-06-11T05:17:05.564Z,35.20
2018-06-11T05:19:33.246Z,35.40
2018-06-11T05:22:00.902Z,35.60
2018-06-11T05:24:28.555Z,35.90
2018-06-11T05:26:56.172Z,36.30
2018-06-11T05:29:23.791Z,37.20
2018-06-11T05:31:51.436Z,37.30
2018-06-11T05:34:19.050Z,37.80
2018-06-11T05:36:46.664Z,38.00
2018-06-11T05:39:14.259Z,37.60
2018-06-11T05:41:41.880Z,36.70
2018-06-11T05:44:09.475Z,35.30
2018-06-11T05:46:37.139Z,35.70
2018-06-11T05:49:04.792Z,36.50
2018-06-11T05:51:32.436Z,37.10
2018-06-11T05:54:00.168Z,37.60
2018-06-11T05:56:27.788Z,37.50
2018-06-11T05:58:55.418Z,38.00
2018-06-11T06:01:23.029Z,38.50
2018-06-11T06:03:50.672Z,38.00
2018-06-11T06:06:18.283Z,38.80
2018-06-11T06:08:46.054Z,39.00
2018-06-11T06:11:13.618Z,39.70
2018-06-11T06:13:41.339Z,39.10
2018-06-11T06:16:08.974Z,39.50
2018-06-11T06:18:36.603Z,38.20
2018-06-11T06:21:04.240Z,38.10
2018-06-11T06:23:31.877Z,36.10
2018-06-11T06:25:59.486Z,33.30
2018-06-11T06:28:27.140Z,31.80
2018-06-11T06:30:54.809Z,30.70
2018-06-11T06:33:22.468Z,29.80
2018-06-11T06:35:50.211Z,29.40
2018-06-11T06:38:17.844Z,29.20
2018-06-11T06:40:45.455Z,29.20
2018-06-11T06:43:13.096Z,29.20
2018-06-11T06:45:40.824Z,29.70
2018-06-11T06:48:08.490Z,32.60
2018-06-11T06:50:36.097Z,35.10
2018-06-11T06:53:03.745Z,37.10
2018-06-11T06:55:31.362Z,36.30
2018-06-11T06:57:58.995Z,35.80
2018-06-11T07:00:26.664Z,35.00
2018-06-11T07:02:54.288Z,34.00
2018-06-11T07:05:21.950Z,32.10
2018-06-11T07:07:49.552Z,30.90
2018-06-11T07:10:17.278Z,29.60
2018-06-11T07:12:44.879Z,29.00
2018-06-11T07:15:12.519Z,28.40
2018-06-11T07:17:40.128Z,27.80
2018-06-11T07:20:07.797Z,27.60
2018-06-11T07:22:35.478Z,27.10
2018-06-11T07:25:03.180Z,26.80
2018-06-11T07:27:30.899Z,26.50
2018-06-11T07:29:58.473Z,26.50
2018-06-11T07:32:26.102Z,26.30
2018-06-11T07:34:53.815Z,26.30
2018-06-11T07:37:21.596Z,25.90
2018-06-11T07:39:49.192Z,25.70
2018-06-11T07:42:16.816Z,25.50
2018-06-11T07:44:44.400Z,25.40
2018-06-11T07:47:12.032Z,25.40
2018-06-11T07:49:39.668Z,25.50
2018-06-11T07:52:07.303Z,25.60
2018-06-11T07:54:35.000Z,25.50
2018-06-11T07:57:02.643Z,25.70
2018-06-11T07:59:30.286Z,25.70
2018-06-11T08:01:57.988Z,25.60
2018-06-11T08:04:25.607Z,25.80
2018-06-11T08:06:53.295Z,25.90
2018-06-11T08:09:20.917Z,26.00
2018-06-11T08:11:48.593Z,26.10
2018-06-11T08:14:16.283Z,26.00
2018-06-11T08:16:43.920Z,26.20
2018-06-11T08:19:11.628Z,26.40
2018-06-11T08:21:39.276Z,26.60
2018-06-11T08:24:06.942Z,26.80
2018-06-11T08:26:34.610Z,27.40
2018-06-11T08:29:02.293Z,28.20
2018-06-11T08:31:29.947Z,28.50
2018-06-11T08:33:57.875Z,28.80
2018-06-11T08:36:25.529Z,29.00
2018-06-11T08:38:53.227Z,29.30
2018-06-11T08:41:20.911Z,29.70
2018-06-11T08:43:48.552Z,29.90
2018-06-11T08:46:16.181Z,30.00
2018-06-11T08:48:43.795Z,30.00
2018-06-11T08:51:11.535Z,30.00
2018-06-11T08:53:39.148Z,29.90
2018-06-11T08:56:06.767Z,29.80
2018-06-11T08:58:34.476Z,29.80
2018-06-11T09:01:02.077Z,29.80
2018-06-11T09:03:29.704Z,29.90
2018-06-11T09:05:57.367Z,29.90
2018-06-11T09:08:25.003Z,29.90
2018-06-11T09:10:52.748Z,29.80
2018-06-11T09:13:20.403Z,29.60
2018-06-11T09:15:48.077Z,29.50
2018-06-11T09:18:15.927Z,29.30
2018-06-11T09:20:43.473Z,29.00
2018-06-11T09:23:12.173Z,28.90
2018-06-11T09:25:39.770Z,28.70
2018-06-11T09:28:07.382Z,28.50
2018-06-11T09:30:35.012Z,28.20
2018-06-11T09:33:02.619Z,28.20
2018-06-11T09:35:30.256Z,28.10
2018-06-11T09:37:57.854Z,28.10
2018-06-11T09:40:25.458Z,28.10
2018-06-11T09:42:53.071Z,28.10
2018-06-11T09:45:20.728Z,28.10
2018-06-11T09:47:48.375Z,28.10
2018-06-11T09:50:16.008Z,28.10
2018-06-11T09:52:43.614Z,28.20
2018-06-11T09:55:11.265Z,28.20
2018-06-11T09:57:38.887Z,28.20
2018-06-11T10:00:11.198Z,28.30
2018-06-11T10:02:38.817Z,28.50
2018-06-11T10:05:06.550Z,28.50
2018-06-11T10:07:34.270Z,28.70
2018-06-11T10:10:01.946Z,29.00
2018-06-11T10:12:29.615Z,29.30
2018-06-11T10:14:57.233Z,29.40
2018-06-11T10:17:24.827Z,29.60
2018-06-11T10:19:52.456Z,29.50
2018-06-11T10:22:20.083Z,29.40
2018-06-11T10:24:47.735Z,29.30
2018-06-11T10:27:15.384Z,29.20
2018-06-11T10:29:43.068Z,29.10
2018-06-11T10:32:10.728Z,29.40
2018-06-11T10:34:38.355Z,29.50
2018-06-11T10:37:05.932Z,29.50
2018-06-11T10:39:33.603Z,29.20
2018-06-11T10:42:01.227Z,29.00
2018-06-11T10:44:28.835Z,28.60
2018-06-11T10:46:56.453Z,28.50
2018-06-11T10:49:24.120Z,28.60
2018-06-11T10:51:51.786Z,28.70
2018-06-11T10:54:19.479Z,28.80
2018-06-11T10:56:47.132Z,28.60
2018-06-11T10:59:14.972Z,28.70
2018-06-11T11:01:43.266Z,28.70
2018-06-11T11:04:10.907Z,28.30
2018-06-11T11:06:38.668Z,28.30
2018-06-11T11:09:07.260Z,28.30
2018-06-11T11:11:35.273Z,28.30
2018-06-11T11:14:03.831Z,28.10
2018-06-11T11:16:32.425Z,28.10
2018-06-11T11:19:00.974Z,28.20
2018-06-11T11:21:28.755Z,28.40
2018-06-11T11:23:57.402Z,28.30
2018-06-11T11:26:25.500Z,28.30
2018-06-11T11:28:53.164Z,28.50
2018-06-11T11:31:20.851Z,28.40
2018-06-11T11:33:48.495Z,28.50
2018-06-11T11:36:16.127Z,28.40
2018-06-11T11:38:43.760Z,28.60
2018-06-11T11:41:11.403Z,27.90
2018-06-11T11:43:39.012Z,28.90
2018-06-11T11:46:06.994Z,29.20
2018-06-11T11:48:34.610Z,29.30
2018-06-11T11:51:02.389Z,29.20
2018-06-11T11:53:30.014Z,29.00
2018-06-11T11:55:57.693Z,29.00
2018-06-11T11:58:25.312Z,29.30
2018-06-11T12:00:53.005Z,29.40
2018-06-11T12:03:20.635Z,29.30
2018-06-11T12:05:48.318Z,29.40
2018-06-11T12:08:15.972Z,29.40
2018-06-11T12:10:43.738Z,29.40
2018-06-11T12:13:11.353Z,29.40
2018-06-11T12:15:38.972Z,29.70
2018-06-11T12:18:06.686Z,29.80
2018-06-11T12:20:34.395Z,29.70
2018-06-11T12:23:02.066Z,29.60
2018-06-11T12:25:29.775Z,29.70
2018-06-11T12:27:57.404Z,29.70
2018-06-11T12:30:25.031Z,29.70
2018-06-11T12:32:52.646Z,29.60
2018-06-11T12:35:20.283Z,29.50
2018-06-11T12:37:47.880Z,29.50
2018-06-11T12:40:15.538Z,29.50
2018-06-11T12:42:43.220Z,29.50
2018-06-11T12:45:10.967Z,29.40
2018-06-11T12:47:38.762Z,30.10
2018-06-11T12:50:06.356Z,29.20
2018-06-11T12:52:34.009Z,29.30
2018-06-11T12:55:01.675Z,29.20
2018-06-11T12:57:29.309Z,29.20
2018-06-11T12:59:56.995Z,29.10
2018-06-11T13:02:24.639Z,29.00
2018-06-11T13:04:52.303Z,29.10
2018-06-11T13:07:19.911Z,28.90
2018-06-11T13:09:47.580Z,28.80
2018-06-11T13:12:15.253Z,28.70
2018-06-11T13:14:42.899Z,28.70
2018-06-11T13:17:10.535Z,28.80
2018-06-11T13:19:38.276Z,28.80
2018-06-11T13:22:05.971Z,28.70
2018-06-11T13:24:33.623Z,28.80
2018-06-11T13:27:01.287Z,28.90
2018-06-11T13:29:29.352Z,29.00
2018-06-11T13:31:58.049Z,29.00
2018-06-11T13:34:25.960Z,28.80
2018-06-11T13:36:54.481Z,28.70
2018-06-11T13:39:22.136Z,28.60
2018-06-11T13:41:50.700Z,28.50
2018-06-11T13:44:18.347Z,28.40
2018-06-11T13:46:46.007Z,28.30
2018-06-11T13:49:13.702Z,28.20
2018-06-11T13:51:41.365Z,28.10
2018-06-11T13:54:09.031Z,28.10
2018-06-11T13:56:36.724Z,28.00
2018-06-11T13:59:04.440Z,27.90
2018-06-11T14:01:32.127Z,27.90
2018-06-11T14:03:59.948Z,27.70
2018-06-11T14:06:27.640Z,27.60
2018-06-11T14:08:55.301Z,27.60
2018-06-11T14:11:22.965Z,27.70
2018-06-11T14:13:50.598Z,27.70
2018-06-11T14:16:18.567Z,27.00
2018-06-11T14:18:46.194Z,28.00
2018-06-11T14:21:13.851Z,28.00
2018-06-11T14:23:41.752Z,27.90
2018-06-11T14:26:09.585Z,27.90
2018-06-11T14:28:37.371Z,27.90
2018-06-11T14:31:05.416Z,27.80
2018-06-11T14:34:35.812Z,27.90
2018-06-11T14:37:03.520Z,27.80
2018-06-11T14:39:31.250Z,27.90
2018-06-11T14:41:59.119Z,27.90
2018-06-11T14:44:27.091Z,27.90
2018-06-11T14:46:54.743Z,27.80
2018-06-11T14:49:22.444Z,27.70
2018-06-11T14:51:50.067Z,27.50
2018-06-11T14:54:17.775Z,27.40
2018-06-11T14:56:45.528Z,27.10
2018-06-11T14:59:13.202Z,27.20
2018-06-11T15:01:41.279Z,26.80
2018-06-11T15:04:09.078Z,26.70
2018-06-11T15:06:36.775Z,26.20
2018-06-11T15:09:06.212Z,26.40
2018-06-11T15:11:33.855Z,26.50
2018-06-11T15:14:01.661Z,26.40
2018-06-11T15:16:30.825Z,26.30
2018-06-11T15:18:58.969Z,26.20
2018-06-11T15:21:26.624Z,26.30
2018-06-11T15:23:54.277Z,26.20
2018-06-11T15:26:21.959Z,26.30
2018-06-11T15:28:49.635Z,26.20
2018-06-11T15:31:17.291Z,26.00
2018-06-11T15:33:44.908Z,26.00
2018-06-11T15:36:12.544Z,25.40
2018-06-11T15:38:40.327Z,25.70
2018-06-11T15:41:08.016Z,25.60
2018-06-11T15:43:35.648Z,25.40
2018-06-11T15:46:03.321Z,25.30
2018-06-11T15:48:30.948Z,25.30
2018-06-11T15:50:59.258Z,25.40
2018-06-11T15:53:26.915Z,25.10
2018-06-11T15:55:54.912Z,24.70
2018-06-11T15:58:22.557Z,24.50
2018-06-11T16:00:50.265Z,24.30
2018-06-11T16:03:18.142Z,24.10
2018-06-11T16:05:45.783Z,24.30
2018-06-11T16:08:13.443Z,24.30
2018-06-11T16:10:41.161Z,24.30
2018-06-11T16:13:08.838Z,24.20
2018-06-11T16:15:36.595Z,24.10
2018-06-11T16:18:04.266Z,23.90
2018-06-11T16:20:31.903Z,23.80
2018-06-11T16:22:59.527Z,23.40
2018-06-11T16:25:27.161Z,23.30
2018-06-11T16:27:54.801Z,23.10
2018-06-11T16:30:22.483Z,22.90
2018-06-11T16:32:50.212Z,22.70
2018-06-11T16:35:17.915Z,22.60
2018-06-11T16:37:45.637Z,22.40
2018-06-11T16:40:13.300Z,22.30
2018-06-11T16:42:40.979Z,22.20
2018-06-11T16:45:08.644Z,22.00
2018-06-11T16:47:36.482Z,21.80
2018-06-11T16:50:04.136Z,21.70
2018-06-11T16:52:32.748Z,21.70
2018-06-11T16:55:00.400Z,21.90
2018-06-11T16:57:28.320Z,22.20
2018-06-11T16:59:56.047Z,22.30
2018-06-11T17:02:23.648Z,22.50
2018-06-11T17:04:51.343Z,22.60
2018-06-11T17:07:18.970Z,22.80
2018-06-11T17:09:46.595Z,22.90
2018-06-11T17:12:14.361Z,23.00
2018-06-11T17:14:42.071Z,23.20
2018-06-11T17:17:09.891Z,23.20
2018-06-11T17:19:37.601Z,23.10
2018-06-11T17:22:05.335Z,23.10
2018-06-11T17:24:32.991Z,23.20
2018-06-11T17:27:01.571Z,22.80
2018-06-11T17:29:29.295Z,22.80
2018-06-11T17:31:56.935Z,22.80
2018-06-11T17:34:24.575Z,22.90
2018-06-11T17:36:52.304Z,23.00
2018-06-11T17:39:19.971Z,23.00
2018-06-11T17:41:47.620Z,23.00
2018-06-11T17:44:15.484Z,23.00
2018-06-11T17:46:43.156Z,23.10
2018-06-11T17:49:10.816Z,23.20
2018-06-11T17:51:38.467Z,23.10
2018-06-11T17:54:06.187Z,23.00
2018-06-11T17:56:33.843Z,23.10
2018-06-11T17:59:01.536Z,23.10
2018-06-11T18:01:29.769Z,23.10
2018-06-11T18:03:57.451Z,22.90
2018-06-11T18:06:25.316Z,23.00
2018-06-11T18:08:52.946Z,23.00
2018-06-11T18:11:21.123Z,22.80
2018-06-11T18:13:48.781Z,22.70
2018-06-11T18:16:16.451Z,22.70
2018-06-11T18:18:44.071Z,22.70
2018-06-11T18:21:11.743Z,22.30
2018-06-11T18:23:39.395Z,22.40
2018-06-11T18:26:07.036Z,22.50
2018-06-11T18:28:34.938Z,22.40
2018-06-11T18:31:02.939Z,22.50
2018-06-11T18:33:30.586Z,22.60
2018-06-11T18:35:58.191Z,22.60
2018-06-11T18:38:26.361Z,22.60
2018-06-11T18:40:54.502Z,22.60
2018-06-11T18:43:24.309Z,22.60
2018-06-11T18:45:52.792Z,22.50
2018-06-11T18:48:22.008Z,22.60
2018-06-11T18:50:50.663Z,22.60
2018-06-11T18:53:19.172Z,22.60
2018-06-11T18:55:47.452Z,22.60
2018-06-11T18:58:15.540Z,22.60
2018-06-11T19:00:43.746Z,22.20
2018-06-11T19:03:12.055Z,22.00
2018-06-11T19:05:40.705Z,21.90
2018-06-11T19:08:09.696Z,21.90
2018-06-11T19:10:38.373Z,21.80
2018-06-11T19:13:07.152Z,21.60
2018-06-11T19:15:36.338Z,21.60
2018-06-11T19:18:04.961Z,21.50
2018-06-11T19:20:33.333Z,21.40
2018-06-11T19:23:08.045Z,21.40
2018-06-11T19:25:36.739Z,21.30
2018-06-11T19:28:04.892Z,21.30
2018-06-11T19:30:32.665Z,21.20
2018-06-11T19:33:00.941Z,21.10
2018-06-11T19:35:29.697Z,21.20
2018-06-11T19:37:58.591Z,21.20
2018-06-11T19:40:27.853Z,21.20
2018-06-11T19:42:56.700Z,21.20
2018-06-11T19:45:24.863Z,19.80
2018-06-11T19:47:52.821Z,21.20
2018-06-11T19:50:21.295Z,21.20
2018-06-11T19:52:50.387Z,21.10
2018-06-11T19:55:18.761Z,21.00
2018-06-11T19:57:48.506Z,21.00
2018-06-11T20:00:16.879Z,20.90
2018-06-11T20:02:45.318Z,20.90
2018-06-11T20:05:13.427Z,20.70
2018-06-11T20:07:41.589Z,20.70
2018-06-11T20:10:09.895Z,20.70
2018-06-11T20:12:38.191Z,20.60
2018-06-11T20:15:06.508Z,20.50
2018-06-11T20:17:34.502Z,20.60
2018-06-11T20:20:02.639Z,20.70
2018-06-11T20:22:31.322Z,20.70
2018-06-11T20:24:59.819Z,20.70
2018-06-11T20:27:28.286Z,20.80
2018-06-11T20:29:56.894Z,20.80
2018-06-11T20:32:24.916Z,20.80
2018-06-11T20:34:52.947Z,20.90
2018-06-11T20:37:20.918Z,20.90
2018-06-11T20:39:49.604Z,20.90
2018-06-11T20:42:17.855Z,20.80
2018-06-11T20:44:46.259Z,20.80
2018-06-11T20:47:14.093Z,20.70
2018-06-11T20:49:42.211Z,20.70
2018-06-11T20:52:10.595Z,20.60
2018-06-11T20:54:39.008Z,20.50
2018-06-11T20:57:07.439Z,20.40
2018-06-11T20:59:36.203Z,20.40
2018-06-11T21:02:04.669Z,20.30
2018-06-11T21:04:33.310Z,20.20
2018-06-11T21:07:01.891Z,20.30
2018-06-11T21:09:30.652Z,20.20
2018-06-11T21:11:58.956Z,20.10
2018-06-11T21:14:27.473Z,20.00
2018-06-11T21:16:56.782Z,19.90
2018-06-11T21:19:25.028Z,19.90
2018-06-11T21:21:53.408Z,19.70
2018-06-11T21:24:21.642Z,19.70
2018-06-11T21:26:49.510Z,19.60
2018-06-11T21:29:17.453Z,19.60
2018-06-11T21:31:45.416Z,19.70
2018-06-11T21:34:13.768Z,19.60
2018-06-11T21:36:42.633Z,19.80
2018-06-11T21:39:11.708Z,19.90
2018-06-11T21:41:39.803Z,19.90
2018-06-11T21:44:07.678Z,19.80
2018-06-11T21:46:35.450Z,19.70
2018-06-11T21:49:03.534Z,19.70
2018-06-11T21:51:31.479Z,19.60
2018-06-11T21:53:59.171Z,19.60
2018-06-11T21:56:26.870Z,19.50
2018-06-11T21:58:54.611Z,19.40
2018-06-11T22:01:22.597Z,19.40
2018-06-11T22:03:50.378Z,19.40
2018-06-11T22:06:18.311Z,19.40
2018-06-11T22:08:46.320Z,19.50
2018-06-11T22:11:14.017Z,19.60
2018-06-11T22:13:41.733Z,19.50
2018-06-11T22:16:10.275Z,19.50
2018-06-11T22:18:38.722Z,19.60
2018-06-11T22:21:08.677Z,19.50
2018-06-11T22:23:36.332Z,19.50
2018-06-11T22:26:04.348Z,19.50
2018-06-11T22:28:32.006Z,19.40
2018-06-11T22:31:00.131Z,19.40
2018-06-11T22:33:27.933Z,19.30
2018-06-11T22:35:56.160Z,19.30
2018-06-11T22:38:23.999Z,19.30
2018-06-11T22:40:51.661Z,19.30
2018-06-11T22:43:19.332Z,19.40
2018-06-11T22:45:47.008Z,19.40
2018-06-11T22:48:14.815Z,19.30
2018-06-11T22:50:42.547Z,19.30
2018-06-11T22:53:10.494Z,19.40
2018-06-11T22:55:38.280Z,19.40
2018-06-11T22:58:06.143Z,19.30
2018-06-11T23:00:34.779Z,19.30
2018-06-11T23:03:02.512Z,19.20
2018-06-11T23:05:30.326Z,19.10
2018-06-11T23:07:58.014Z,19.10
2018-06-11T23:10:26.276Z,19.00
2018-06-11T23:12:54.015Z,18.90
2018-06-11T23:15:21.681Z,18.90
2018-06-11T23:17:49.862Z,18.80
2018-06-11T23:20:17.588Z,18.80
2018-06-11T23:22:45.260Z,18.80
2018-06-11T23:25:12.984Z,18.70
2018-06-11T23:27:40.730Z,18.70
2018-06-11T23:30:08.593Z,18.70
2018-06-11T23:32:36.452Z,18.70
2018-06-11T23:35:05.268Z,18.70
2018-06-11T23:37:33.219Z,18.70
2018-06-11T23:40:00.925Z,18.70
2018-06-11T23:42:28.987Z,18.70
2018-06-11T23:44:56.672Z,18.70
2018-06-11T23:47:24.459Z,18.70
2018-06-11T23:49:52.637Z,18.70
2018-06-11T23:52:21.369Z,18.60
2018-06-11T23:54:49.220Z,18.60
2018-06-11T23:57:17.236Z,18.70
2018-06-11T23:59:45.297Z,18.70
